الصفحة الرئيسية
METAR-TAF:

METAR-TAF

مطار :

بنغالور, الهند

دائرة عرض: 12-57-00N, خط طول: 077-40-06E, ارتفاع: 888 متر

مراقبة الطقس الحالي

تاريخ ووقت الإصدار 14 دقيقة قبل الساعة 07:30UTC
ريح 9 عقدة من الجنوب الشرقي
درجة الحرارة 33°درجة مئوية
الرطوبة 20%
ضغط 1015 hPa
الرؤية 10 كم أو أكثر
الغيوم لا تقل 1500 م ولا وجود لمزنة ركامية السحاب الأسود

METAR: VOBG 310730Z 13009KT CAVOK 33/07 Q1015 NOSIG

زمن: 13:14 (07:44 UTC)

توقعات

تاريخ ووقت الإصدار 2ساعات و 44 دقيقة قبل الساعة 05:00UTC
التوقعات صالحة من31 الساعة 06 UTC إلى 31 الساعة 15 UTC
ريح 10 عقدة من الشرق/الجنوب الشرقي
الرؤية: 6000 متر
غيوم قليلة على ارتفاع 1500 قدم

TAF: VOBG 310500Z 3106/3115 11010KT 6000 FEW015

أرصاد الطقس والتوقعات من أكثر من 4000 مطار (تقارير الطقس للمطار METAR والتنبؤ بالطقس بالمطارTAF).

المحطات المتاحة هي النقط الصفراء والحمراء على الخريطة.

حرك المؤشر فوق النقطة لمعرفة اسم المحطة.

ثم انقر لمعرفة أرصاد وتوقعات الطقس.

لتغيير الخارطة: اضغط على الأزرار الخضراء مع رمز الصليب الأسود للتكبير. على الزر الأخضر مع شرطة للتصغير، أو على الأسهم الخضراء للخرائط المجاورة.


METAR-TAF: